Time;durP1;ratioP1;P1;durP2;ratioP2;P2;SDS_P1;SDS_P2;PMS_P1;PMS_P2;Temp;Humidity;BMP_temperature;BMP_pressure;BME280_temperature;BME280_humidity;BME280_pressure;Samples;Min_cycle;Max_cycle;Signal;HPM_P1;HPM_P2
2022/01/01 00:01:08;;;;;;;0.20;0.20;;;;;;;19.46;45.16;101945.72;5114646;28;20039;-35
2022/01/01 00:03:34;;;;;;;0.20;0.20;;;;;;;19.46;45.45;101951.25;5096743;28;20086;-37
2022/01/01 00:06:05;;;;;;;0.20;0.20;;;;;;;19.46;45.47;101951.25;5113942;28;20043;-37
2022/01/01 00:08:30;;;;;;;0.20;0.20;;;;;;;19.46;45.15;101946.53;5110563;28;20040;-35
2022/01/01 00:10:56;;;;;;;0.20;0.20;;;;;;;19.45;45.39;101944.88;5111142;28;20298;-35
2022/01/01 00:13:42;;;;;;;0.20;0.20;;;;;;;19.46;45.02;101941.03;5095190;28;20489;-35
2022/01/01 00:16:09;;;;;;;0.20;0.20;;;;;;;19.46;45.27;101943.78;5115573;28;20043;-37
2022/01/01 00:18:36;;;;;;;0.20;0.20;;;;;;;19.47;45.29;101952.91;5113991;28;20039;-36
2022/01/01 00:21:03;;;;;;;0.20;0.20;;;;;;;19.46;45.52;101954.84;5095408;28;20088;-36
2022/01/01 00:23:29;;;;;;;0.20;0.20;;;;;;;19.46;45.13;101945.72;5111449;28;20466;-34
2022/01/01 00:25:54;;;;;;;0.20;0.20;;;;;;;19.47;45.14;101956.53;5112292;28;20047;-35
2022/01/01 00:28:20;;;;;;;0.22;0.22;;;;;;;19.47;45.31;101961.19;5118030;28;20536;-34
2022/01/01 00:30:45;;;;;;;0.20;0.20;;;;;;;19.46;45.25;101956.75;5114063;28;20051;-38
2022/01/01 00:33:11;;;;;;;0.20;0.20;;;;;;;19.47;45.40;101959.28;5109010;28;20046;-35
2022/01/01 00:35:38;;;;;;;0.20;0.20;;;;;;;19.47;45.15;101963.97;5111988;28;20058;-35
2022/01/01 00:38:03;;;;;;;0.20;0.20;;;;;;;19.47;45.21;101964.81;5095721;28;20040;-35
2022/01/01 00:40:29;;;;;;;0.20;0.20;;;;;;;19.47;45.18;101964.81;5111142;28;20386;-36
2022/01/01 00:42:55;;;;;;;0.20;0.20;;;;;;;19.47;45.13;101962.06;5111395;28;20075;-39
2022/01/01 00:45:21;;;;;;;0.20;0.20;;;;;;;19.46;45.29;101963.13;5108284;28;20582;-35
2022/01/01 00:47:47;;;;;;;0.20;0.20;;;;;;;19.46;45.44;101963.13;5110208;28;20044;-37
2022/01/01 00:50:13;;;;;;;0.20;0.20;;;;;;;19.46;45.17;101968.66;5119895;28;20431;-35
2022/01/01 00:52:38;;;;;;;0.20;0.20;;;;;;;19.47;45.29;101978.63;5106684;28;20036;-35
2022/01/01 00:55:04;;;;;;;0.20;0.20;;;;;;;19.47;45.54;101975.88;5110893;28;20430;-34
2022/01/01 00:57:30;;;;;;;0.20;0.20;;;;;;;19.47;45.14;101969.47;5110093;28;20053;-35
2022/01/01 00:59:56;;;;;;;0.20;0.20;;;;;;;19.47;45.44;101975.88;5113157;28;20044;-35
2022/01/01 01:02:21;;;;;;;0.20;0.20;;;;;;;19.48;45.46;101979.47;5111539;28;20043;-37
2022/01/01 01:04:47;;;;;;;0.20;0.20;;;;;;;19.47;45.23;101977.75;5111063;28;20043;-36
2022/01/01 01:07:13;;;;;;;0.20;0.20;;;;;;;19.48;45.38;101965.66;5111536;28;20407;-35
2022/01/01 01:09:39;;;;;;;0.30;0.30;;;;;;;19.47;45.36;101970.34;5094268;28;20050;-35
2022/01/01 01:12:05;;;;;;;0.20;0.20;;;;;;;19.48;45.29;101965.66;5111804;28;20239;-35
2022/01/01 01:14:39;;;;;;;0.10;0.10;;;;;;;19.47;45.33;101972.25;5108354;28;20454;-36
2022/01/01 01:17:05;;;;;;;0.20;0.20;;;;;;;19.49;45.03;101978.38;5111163;28;20104;-35
2022/01/01 01:19:31;;;;;;;0.25;0.25;;;;;;;19.47;45.23;101970.34;5110800;28;20044;-38
2022/01/01 01:21:58;;;;;;;0.20;0.20;;;;;;;19.47;45.38;101984.16;5109520;28;20088;-35
2022/01/01 01:24:25;;;;;;;0.20;0.20;;;;;;;19.48;45.43;101985.81;5110601;28;20061;-35
2022/01/01 01:26:52;;;;;;;0.20;0.20;;;;;;;19.47;45.44;101986.91;5113095;28;20047;-35
2022/01/01 01:29:19;;;;;;;0.20;0.20;;;;;;;19.49;45.17;101978.38;5087719;28;20047;-35
2022/01/01 01:31:46;;;;;;;0.20;0.20;;;;;;;19.47;45.45;101973.09;5092218;28;20047;-35
2022/01/01 01:34:11;;;;;;;0.20;0.20;;;;;;;19.49;45.20;101972.84;5095973;28;20046;-38
2022/01/01 01:36:41;;;;;;;0.20;0.20;;;;;;;19.48;45.25;101971.19;5111051;28;20044;-35
2022/01/01 01:39:06;;;;;;;0.20;0.20;;;;;;;19.48;45.33;101973.94;5109165;28;20050;-36
2022/01/01 01:41:32;;;;;;;0.20;0.20;;;;;;;19.48;45.34;101963.72;5115656;28;20043;-35
2022/01/01 01:43:59;;;;;;;0.20;0.20;;;;;;;19.49;45.55;101967.31;5093355;28;20062;-39
2022/01/01 01:46:26;;;;;;;0.20;0.20;;;;;;;19.47;45.36;101973.09;5110436;28;20039;-36
2022/01/01 01:48:52;;;;;;;0.20;0.20;;;;;;;19.49;45.35;101972.84;5092733;28;20075;-36
2022/01/01 01:51:17;;;;;;;0.20;0.20;;;;;;;19.48;45.38;101980.28;5109057;28;20099;-36
2022/01/01 01:53:43;;;;;;;0.20;0.20;;;;;;;19.48;45.17;101983.06;5110095;28;20111;-37
2022/01/01 01:56:09;;;;;;;0.20;0.20;;;;;;;19.49;45.34;101981.13;5114183;28;20060;-36
2022/01/01 01:58:35;;;;;;;0.20;0.20;;;;;;;19.50;45.17;101993.84;5113485;28;20104;-36
2022/01/01 02:01:20;;;;;;;0.20;0.20;;;;;;;19.49;45.45;101987.47;5110662;28;20043;-37
2022/01/01 02:03:47;;;;;;;0.20;0.20;;;;;;;19.49;45.38;101989.41;5093956;28;20040;-35
2022/01/01 02:06:13;;;;;;;0.20;0.20;;;;;;;19.50;45.18;101996.59;5110435;28;20039;-35
2022/01/01 02:08:39;;;;;;;0.20;0.20;;;;;;;19.49;45.24;101997.69;5112400;28;20045;-36
2022/01/01 02:11:05;;;;;;;0.20;0.20;;;;;;;19.50;45.08;102002.97;5113142;28;20039;-37
2022/01/01 02:13:37;;;;;;;0.20;0.20;;;;;;;19.49;45.42;101998.53;5109591;28;20043;-35
2022/01/01 02:16:28;;;;;;;0.20;0.20;;;;;;;19.50;45.44;101993.84;5107488;28;20138;-35
2022/01/01 02:18:54;;;;;;;0.20;0.20;;;;;;;19.49;45.22;101992.19;5095003;28;20040;-35
2022/01/01 02:21:21;;;;;;;0.20;0.20;;;;;;;19.49;45.25;101992.19;5109257;28;20345;-35
2022/01/01 02:23:48;;;;;;;0.20;0.20;;;;;;;19.50;45.28;101982.78;5071575;28;20051;-35
2022/01/01 02:26:15;;;;;;;0.20;0.20;;;;;;;19.49;45.26;101993.00;5108810;28;20039;-37
2022/01/01 02:28:43;;;;;;;0.20;0.20;;;;;;;19.50;45.37;101980.84;5109412;28;20513;-35
2022/01/01 02:31:10;;;;;;;0.20;0.20;;;;;;;19.49;45.13;101990.25;5088718;28;20630;-36
2022/01/01 02:33:36;;;;;;;0.20;0.20;;;;;;;19.48;45.30;101977.53;5090400;28;20134;-35
2022/01/01 02:36:02;;;;;;;0.20;0.20;;;;;;;19.50;45.34;101988.31;5110177;28;20058;-35
2022/01/01 02:38:28;;;;;;;0.20;0.20;;;;;;;19.51;45.29;101981.69;5108166;28;20047;-35
2022/01/01 02:40:54;;;;;;;0.20;0.20;;;;;;;19.50;45.27;101982.78;5108855;28;20036;-36
2022/01/01 02:43:19;;;;;;;0.20;0.20;;;;;;;19.50;45.28;101989.16;5106534;28;20105;-36
2022/01/01 02:45:45;;;;;;;0.20;0.20;;;;;;;19.51;45.23;101987.22;5108899;28;20047;-35
2022/01/01 02:48:12;;;;;;;0.20;0.20;;;;;;;19.50;45.27;101991.91;5111333;28;20100;-35
2022/01/01 02:50:38;;;;;;;0.20;0.20;;;;;;;19.50;45.43;101991.91;5095742;28;20047;-35
2022/01/01 02:53:12;;;;;;;0.20;0.20;;;;;;;19.50;45.16;101997.44;5104777;28;20465;-35
2022/01/01 02:55:38;;;;;;;0.20;0.20;;;;;;;19.51;45.45;102001.84;5109777;28;20043;-36
2022/01/01 02:58:04;;;;;;;0.20;0.20;;;;;;;19.51;45.40;102001.03;5110532;28;20050;-35
2022/01/01 03:00:30;;;;;;;0.20;0.20;;;;;;;19.51;45.37;101999.09;5089634;28;20040;-37
2022/01/01 03:02:55;;;;;;;0.20;0.20;;;;;;;19.52;45.33;101999.97;5110326;28;20062;-35
2022/01/01 03:05:21;;;;;;;0.20;0.20;;;;;;;19.50;45.38;102000.19;5113191;28;20048;-39
2022/01/01 03:07:47;;;;;;;0.20;0.20;;;;;;;19.51;45.29;102009.31;5112129;28;20574;-36
2022/01/01 03:10:13;;;;;;;0.20;0.20;;;;;;;19.52;45.40;102008.25;5110506;28;20496;-36
2022/01/01 03:12:38;;;;;;;0.20;0.20;;;;;;;19.51;45.44;102004.63;5110867;28;20376;-37
2022/01/01 03:15:05;;;;;;;0.20;0.20;;;;;;;19.51;45.38;102003.78;5107819;28;20036;-35
2022/01/01 03:17:30;;;;;;;0.20;0.20;;;;;;;19.51;45.22;102004.63;5114052;28;20053;-35
2022/01/01 03:19:56;;;;;;;0.20;0.20;;;;;;;19.51;45.64;102003.78;5114572;28;20039;-35
2022/01/01 03:22:21;;;;;;;0.20;0.20;;;;;;;19.51;45.26;102010.16;5117495;28;20500;-35
2022/01/01 03:24:47;;;;;;;0.20;0.20;;;;;;;19.51;45.52;102010.16;5094227;28;20108;-35
2022/01/01 03:27:13;;;;;;;0.20;0.20;;;;;;;19.52;45.09;102002.72;5110280;28;20062;-36
2022/01/01 03:29:38;;;;;;;0.20;0.20;;;;;;;19.52;45.25;102013.78;5116116;28;20043;-36
2022/01/01 03:32:05;;;;;;;0.20;0.20;;;;;;;19.52;45.50;102005.50;5113989;28;20066;-35
2022/01/01 03:34:30;;;;;;;0.20;0.20;;;;;;;19.51;45.48;102001.84;5112206;28;20039;-35
2022/01/01 03:36:56;;;;;;;0.20;0.20;;;;;;;19.51;45.43;102001.84;5100516;28;20048;-35
2022/01/01 03:39:22;;;;;;;0.20;0.20;;;;;;;19.51;45.31;102004.63;5113109;28;20359;-35
2022/01/01 03:41:49;;;;;;;0.20;0.20;;;;;;;19.51;45.53;102004.63;5116953;28;20039;-35
2022/01/01 03:44:15;;;;;;;0.20;0.20;;;;;;;19.52;45.42;102002.72;5110582;28;20116;-35
2022/01/01 03:46:40;;;;;;;0.20;0.20;;;;;;;19.52;45.34;101995.28;5093153;28;20502;-36
2022/01/01 03:49:06;;;;;;;0.20;0.20;;;;;;;19.52;45.37;101994.44;5113990;28;20065;-35
2022/01/01 03:51:32;;;;;;;0.20;0.20;;;;;;;19.52;45.58;101992.50;5111906;28;20383;-37
2022/01/01 03:53:57;;;;;;;0.20;0.20;;;;;;;19.51;45.50;101982.53;5115103;28;20043;-35
2022/01/01 03:56:23;;;;;;;0.20;0.20;;;;;;;19.52;45.31;101980.63;5112932;28;20067;-35
2022/01/01 03:58:49;;;;;;;0.20;0.20;;;;;;;19.52;45.45;101975.09;5112613;28;20051;-36
2022/01/01 04:01:14;;;;;;;0.20;0.20;;;;;;;19.52;45.24;101973.16;5112731;28;20039;-35
2022/01/01 04:03:41;;;;;;;0.20;0.20;;;;;;;19.53;45.08;101974.81;5112113;28;20062;-35
2022/01/01 04:06:07;;;;;;;0.20;0.20;;;;;;;19.53;45.21;101974.81;5115952;28;20571;-37
2022/01/01 04:08:32;;;;;;;0.20;0.20;;;;;;;19.53;45.32;101976.75;5111359;28;20040;-36
2022/01/01 04:10:58;;;;;;;0.20;0.20;;;;;;;19.53;45.25;101982.28;5097251;28;20104;-35
2022/01/01 04:13:24;;;;;;;0.20;0.20;;;;;;;19.52;45.47;101984.22;5114678;28;20044;-36
2022/01/01 04:15:49;;;;;;;0.20;0.20;;;;;;;19.53;45.27;101980.34;5109534;28;20050;-36
2022/01/01 04:18:25;;;;;;;0.20;0.20;;;;;;;19.52;45.16;101984.22;5089949;28;20387;-36
2022/01/01 04:20:51;;;;;;;0.20;0.20;;;;;;;19.53;45.50;101980.34;5109719;28;20044;-35
2022/01/01 04:23:16;;;;;;;0.20;0.20;;;;;;;19.53;45.38;101979.53;5112649;28;20075;-36
2022/01/01 04:25:44;;;;;;;0.20;0.20;;;;;;;19.52;45.50;101972.34;5115609;28;20048;-36
2022/01/01 04:28:10;;;;;;;0.20;0.20;;;;;;;19.52;45.28;101975.94;5114763;28;20047;-36
2022/01/01 04:30:35;;;;;;;0.20;0.20;;;;;;;19.52;45.17;101970.41;5112330;28;20112;-35
2022/01/01 04:33:02;;;;;;;0.20;0.20;;;;;;;19.53;45.31;101974.00;5111486;28;20043;-36
2022/01/01 04:35:27;;;;;;;0.10;0.10;;;;;;;19.52;45.09;101973.16;5092614;28;20044;-35
2022/01/01 04:37:53;;;;;;;0.20;0.20;;;;;;;19.53;45.14;101972.06;5112026;28;20043;-36
2022/01/01 04:40:19;;;;;;;0.20;0.20;;;;;;;19.52;45.51;101969.56;5113666;28;20047;-35
2022/01/01 04:42:44;;;;;;;0.20;0.20;;;;;;;19.53;45.18;101969.31;5116755;28;20422;-38
2022/01/01 04:45:11;;;;;;;0.20;0.20;;;;;;;19.53;45.21;101968.47;5113689;28;20211;-38
2022/01/01 04:47:37;;;;;;;0.20;0.20;;;;;;;19.53;45.32;101979.53;5110970;28;20046;-36
2022/01/01 04:50:04;;;;;;;0.20;0.20;;;;;;;19.53;45.47;101983.13;5112241;28;20071;-36
2022/01/01 04:52:30;;;;;;;0.20;0.20;;;;;;;19.54;45.49;101981.19;5098395;28;20138;-35
2022/01/01 04:54:57;;;;;;;0.20;0.20;;;;;;;19.52;45.21;101978.69;5110051;28;20039;-36
2022/01/01 04:57:28;;;;;;;0.20;0.20;;;;;;;19.53;45.39;101988.63;5102847;28;20091;-36
2022/01/01 04:59:53;;;;;;;0.20;0.20;;;;;;;19.53;45.44;101974.00;5115973;28;20047;-35
2022/01/01 05:02:19;;;;;;;0.20;0.20;;;;;;;19.54;45.21;101975.66;5112350;28;20102;-35
2022/01/01 05:04:50;;;;;;;0.20;0.20;;;;;;;19.54;45.26;101993.06;5114764;28;20075;-36
2022/01/01 05:07:16;;;;;;;0.30;0.30;;;;;;;19.54;45.20;101992.22;5108678;28;20079;-36
2022/01/01 05:09:41;;;;;;;0.20;0.20;;;;;;;19.53;45.49;101996.94;5110075;28;20062;-35
2022/01/01 05:12:07;;;;;;;0.20;0.20;;;;;;;19.54;45.22;101995.00;5113151;28;20046;-36
2022/01/01 05:14:34;;;;;;;0.20;0.20;;;;;;;19.54;45.33;102001.34;5108107;28;20099;-35
2022/01/01 05:17:00;;;;;;;0.20;0.20;;;;;;;19.55;45.47;101993.91;5109210;28;20061;-35
2022/01/01 05:19:26;;;;;;;0.20;0.20;;;;;;;19.55;45.31;101999.44;5109113;28;20040;-36
2022/01/01 05:21:55;;;;;;;0.20;0.20;;;;;;;19.55;45.31;102002.19;5109115;28;20141;-35
2022/01/01 05:24:21;;;;;;;0.20;0.20;;;;;;;19.54;45.22;102004.13;5107350;28;20385;-35
2022/01/01 05:26:47;;;;;;;0.20;0.20;;;;;;;19.54;45.22;102006.03;5091313;28;20043;-36
2022/01/01 05:29:13;;;;;;;0.20;0.20;;;;;;;19.54;45.50;102004.13;5111413;28;20371;-36
2022/01/01 05:31:38;;;;;;;0.20;0.20;;;;;;;19.54;45.46;102014.34;5118863;27;20106;-35
2022/01/01 05:34:04;;;;;;;0.20;0.20;;;;;;;19.54;45.47;102009.66;5111699;28;20039;-35
2022/01/01 05:36:30;;;;;;;0.20;0.20;;;;;;;19.55;45.40;102007.72;5113130;28;20100;-35
2022/01/01 05:38:56;;;;;;;0.20;0.20;;;;;;;19.54;45.54;102004.13;5091473;28;20039;-35
2022/01/01 05:41:21;;;;;;;0.20;0.20;;;;;;;19.55;45.29;102007.72;5109557;28;20043;-36
2022/01/01 05:43:48;;;;;;;0.20;0.20;;;;;;;19.55;45.47;102002.19;5108011;28;20047;-35
2022/01/01 05:46:13;;;;;;;0.20;0.20;;;;;;;19.55;45.26;102004.94;5110432;28;20364;-35
2022/01/01 05:48:39;;;;;;;0.20;0.20;;;;;;;19.55;45.22;102002.19;5111287;28;20043;-35
2022/01/01 05:51:06;;;;;;;0.20;0.20;;;;;;;19.54;45.38;102006.03;5113113;28;20386;-36
2022/01/01 05:53:32;;;;;;;0.20;0.20;;;;;;;19.56;45.32;102006.66;5107760;28;20193;-35
2022/01/01 05:55:58;;;;;;;0.20;0.20;;;;;;;19.54;45.40;101998.59;5107802;28;20045;-35
2022/01/01 05:58:23;;;;;;;0.20;0.20;;;;;;;19.54;45.46;101995.81;5115119;28;20039;-36
2022/01/01 06:00:49;;;;;;;0.20;0.20;;;;;;;19.55;45.30;101993.91;5109965;28;20043;-36
2022/01/01 06:03:17;;;;;;;0.20;0.20;;;;;;;19.55;45.41;101991.97;5109024;28;20052;-35
2022/01/01 06:05:43;;;;;;;0.20;0.20;;;;;;;19.55;45.22;101993.91;5106375;28;20062;-36
2022/01/01 06:08:08;;;;;;;0.20;0.20;;;;;;;19.55;45.40;101996.66;5109456;28;20048;-35
2022/01/01 06:10:34;;;;;;;0.20;0.20;;;;;;;19.54;45.22;101989.47;5110130;28;20043;-35
2022/01/01 06:13:00;;;;;;;0.20;0.20;;;;;;;19.55;45.56;102000.25;5111082;28;20046;-36
2022/01/01 06:15:25;;;;;;;0.20;0.20;;;;;;;19.55;45.51;101996.66;5106555;28;20700;-35
2022/01/01 06:17:51;;;;;;;0.20;0.20;;;;;;;19.55;45.36;101993.91;5113450;28;20448;-35
2022/01/01 06:20:17;;;;;;;0.20;0.20;;;;;;;19.56;45.51;102006.66;5114913;28;20042;-35
2022/01/01 06:23:01;;;;;;;0.20;0.20;;;;;;;19.54;45.29;102004.13;5108312;28;20062;-35
2022/01/01 06:25:27;;;;;;;0.20;0.20;;;;;;;19.55;45.14;102004.94;5109731;28;20058;-35
2022/01/01 06:27:53;;;;;;;0.20;0.20;;;;;;;19.56;45.22;102006.66;5113749;28;20047;-36
2022/01/01 06:30:18;;;;;;;0.20;0.20;;;;;;;19.58;45.25;102011.91;5111569;28;20047;-36
2022/01/01 06:32:45;;;;;;;0.20;0.20;;;;;;;19.55;45.21;102010.47;5110571;28;20051;-35
2022/01/01 06:35:10;;;;;;;0.20;0.20;;;;;;;19.56;45.59;102006.66;5109578;28;20454;-39
2022/01/01 06:37:36;;;;;;;0.20;0.20;;;;;;;19.55;45.54;102000.25;5108141;28;20036;-36
2022/01/01 06:40:02;;;;;;;0.20;0.20;;;;;;;19.55;45.33;102011.31;5115373;28;20071;-35
2022/01/01 06:42:27;;;;;;;0.20;0.20;;;;;;;19.57;45.28;102010.25;5092315;28;20055;-35
2022/01/01 06:44:53;;;;;;;0.20;0.20;;;;;;;19.57;45.75;102010.25;5114328;28;20035;-37
2022/01/01 06:47:19;;;;;;;0.20;0.20;;;;;;;19.55;45.14;102022.34;5113200;28;20054;-36
2022/01/01 06:49:47;;;;;;;0.20;0.20;;;;;;;19.57;45.34;102026.81;5113176;28;20048;-36
2022/01/01 06:52:13;;;;;;;0.20;0.20;;;;;;;19.57;45.37;102024.06;5113701;28;20304;-36
2022/01/01 06:54:38;;;;;;;0.20;0.20;;;;;;;19.57;45.47;102026.81;5107161;28;20044;-35
2022/01/01 06:57:04;;;;;;;0.20;0.20;;;;;;;19.57;45.44;102026.81;5118892;28;20148;-35
2022/01/01 06:59:30;;;;;;;0.20;0.20;;;;;;;19.57;45.40;102024.06;5111035;28;20123;-35
2022/01/01 07:01:55;;;;;;;0.20;0.20;;;;;;;19.58;45.36;102018.25;5113453;28;20048;-35
2022/01/01 07:04:21;;;;;;;0.20;0.20;;;;;;;19.56;45.51;102014.94;5109587;28;20047;-35
2022/01/01 07:06:48;;;;;;;0.20;0.20;;;;;;;19.58;45.08;102011.91;5112663;28;20044;-35
2022/01/01 07:09:14;;;;;;;0.20;0.20;;;;;;;19.56;45.22;102012.16;5112095;28;20096;-37
2022/01/01 07:11:40;;;;;;;0.20;0.20;;;;;;;19.55;45.46;102019.59;5110031;28;20134;-35
2022/01/01 07:14:06;;;;;;;0.20;0.20;;;;;;;19.58;45.18;102023.78;5112241;28;20386;-35
2022/01/01 07:16:32;;;;;;;0.20;0.20;;;;;;;19.59;45.50;102024.63;5113526;28;20076;-35
2022/01/01 07:18:57;;;;;;;0.20;0.20;;;;;;;19.58;45.22;102025.72;5094447;28;20051;-37
2022/01/01 07:21:23;;;;;;;0.20;0.20;;;;;;;19.58;45.33;102036.78;5113825;28;20063;-36
2022/01/01 07:23:48;;;;;;;0.20;0.20;;;;;;;19.57;45.64;102029.56;5108562;28;20048;-35
2022/01/01 07:26:14;;;;;;;0.20;0.20;;;;;;;19.57;45.49;102037.88;5112327;28;20039;-36
2022/01/01 07:28:40;;;;;;;0.20;0.20;;;;;;;19.59;45.25;102041.19;5113733;28;20039;-35
2022/01/01 07:31:05;;;;;;;0.20;0.20;;;;;;;19.59;45.26;102043.97;5117880;28;20056;-36
2022/01/01 07:33:31;;;;;;;0.20;0.20;;;;;;;19.57;45.27;102052.53;5112966;28;20176;-35
2022/01/01 07:35:57;;;;;;;0.20;0.20;;;;;;;19.59;45.40;102055.00;5114046;28;20043;-35
2022/01/01 07:38:23;;;;;;;0.20;0.20;;;;;;;19.58;45.36;102050.59;5113781;28;20039;-35
2022/01/01 07:40:49;;;;;;;0.20;0.20;;;;;;;19.59;45.28;102052.25;5103648;28;20058;-35
2022/01/01 07:43:16;;;;;;;0.20;0.20;;;;;;;19.59;45.58;102053.09;5092068;28;20051;-35
2022/01/01 07:45:43;;;;;;;0.20;0.20;;;;;;;19.59;45.15;102055.00;5112905;28;20093;-35
2022/01/01 07:48:09;;;;;;;0.20;0.20;;;;;;;19.59;45.55;102046.72;5096853;28;20061;-35
2022/01/01 07:50:35;;;;;;;0.20;0.20;;;;;;;19.58;45.39;102051.41;5115366;28;20050;-35
2022/01/01 07:53:01;;;;;;;0.20;0.20;;;;;;;19.58;45.50;102045.88;5106371;28;20051;-36
2022/01/01 07:55:27;;;;;;;0.20;0.20;;;;;;;19.58;45.50;102051.41;5112835;28;20092;-35
2022/01/01 07:57:53;;;;;;;0.20;0.20;;;;;;;19.59;45.21;102055.00;5099464;28;20044;-35
2022/01/01 08:00:19;;;;;;;0.20;0.20;;;;;;;19.58;45.27;102065.22;5110679;28;20479;-36
2022/01/01 08:02:46;;;;;;;0.20;0.20;;;;;;;19.59;45.55;102068.84;5114043;28;20454;-37
2022/01/01 08:05:14;;;;;;;0.20;0.20;;;;;;;19.59;45.28;102068.84;5115907;28;20044;-37
2022/01/01 08:07:40;;;;;;;0.20;0.20;;;;;;;19.59;45.50;102069.66;5112411;28;20062;-36
2022/01/01 08:10:25;;;;;;;0.20;0.20;;;;;;;19.58;45.24;102064.41;5094106;28;20048;-35
2022/01/01 08:12:51;;;;;;;0.20;0.20;;;;;;;19.58;45.41;102067.16;5093760;28;20051;-36
2022/01/01 08:15:17;;;;;;;0.20;0.20;;;;;;;19.59;45.29;102068.84;5110023;28;20043;-37
2022/01/01 08:17:43;;;;;;;0.20;0.20;;;;;;;19.59;45.19;102075.19;5111780;28;20459;-35
2022/01/01 08:20:09;;;;;;;0.20;0.20;;;;;;;19.59;45.21;102074.34;5094416;28;20115;-35
2022/01/01 08:22:35;;;;;;;0.20;0.20;;;;;;;19.59;45.35;102077.94;5110485;28;20134;-37
2022/01/01 08:25:01;;;;;;;0.17;0.17;;;;;;;19.59;45.44;102074.34;5109514;28;20047;-38
2022/01/01 08:27:26;;;;;;;0.20;0.20;;;;;;;19.59;45.37;102066.91;5109113;28;20050;-35
2022/01/01 08:29:52;;;;;;;0.20;0.20;;;;;;;19.60;45.61;102071.31;5107424;28;20048;-35
2022/01/01 08:32:18;;;;;;;0.20;0.20;;;;;;;19.59;45.51;102069.66;5113647;28;20466;-37
2022/01/01 08:34:43;;;;;;;0.20;0.20;;;;;;;19.59;45.34;102072.44;5112114;28;20035;-35
2022/01/01 08:37:09;;;;;;;0.20;0.20;;;;;;;19.60;45.29;102076.03;5109628;28;20051;-37
2022/01/01 08:39:35;;;;;;;0.20;0.20;;;;;;;19.59;45.44;102077.94;5109433;28;20551;-35
2022/01/01 08:42:00;;;;;;;0.20;0.20;;;;;;;19.61;45.45;102080.50;5112266;28;20047;-35
2022/01/01 08:44:26;;;;;;;0.20;0.20;;;;;;;19.59;45.44;102074.34;5094297;28;20048;-36
2022/01/01 08:46:52;;;;;;;0.20;0.20;;;;;;;19.59;45.54;102075.19;5109946;28;20052;-35
2022/01/01 08:49:18;;;;;;;0.20;0.20;;;;;;;19.60;45.55;102076.03;5112168;28;20073;-35
2022/01/01 08:51:44;;;;;;;0.20;0.20;;;;;;;19.59;45.31;102089.00;5109479;28;20048;-35
2022/01/01 08:54:12;;;;;;;0.10;0.10;;;;;;;19.60;45.21;102089.84;5109056;28;20059;-35
2022/01/01 08:56:38;;;;;;;0.20;0.20;;;;;;;19.59;45.31;102080.72;5093472;28;20066;-34
2022/01/01 08:59:04;;;;;;;0.20;0.20;;;;;;;19.60;45.31;102074.09;5092989;28;20043;-35
2022/01/01 09:01:30;;;;;;;0.20;0.20;;;;;;;19.59;45.53;102071.59;5116033;28;20096;-39
2022/01/01 09:03:56;;;;;;;0.20;0.20;;;;;;;19.59;45.08;102077.94;5106080;28;20047;-35
2022/01/01 09:06:21;;;;;;;0.20;0.20;;;;;;;19.60;45.52;102076.84;5110849;27;20122;-35
2022/01/01 09:08:47;;;;;;;0.20;0.20;;;;;;;19.60;45.31;102076.84;5110509;28;20043;-35
2022/01/01 09:11:14;;;;;;;0.20;0.20;;;;;;;19.60;45.46;102073.25;5113426;28;20107;-36
2022/01/01 09:13:43;;;;;;;0.20;0.20;;;;;;;19.60;45.47;102067.72;5106682;28;20048;-35
2022/01/01 09:16:10;;;;;;;0.20;0.20;;;;;;;19.61;45.26;102063.94;5094441;28;20064;-35
2022/01/01 09:18:38;;;;;;;0.20;0.20;;;;;;;19.59;45.56;102061.38;5094372;28;20036;-34
2022/01/01 09:21:04;;;;;;;0.20;0.20;;;;;;;19.60;45.44;102060.28;5096680;28;20050;-34
2022/01/01 09:23:29;;;;;;;0.20;0.20;;;;;;;19.60;45.13;102060.28;5107625;28;20040;-35
2022/01/01 09:25:55;;;;;;;0.20;0.20;;;;;;;19.60;45.33;102063.03;5093846;28;20105;-35
2022/01/01 09:28:21;;;;;;;0.20;0.20;;;;;;;19.60;45.34;102063.03;5110178;28;20044;-36
2022/01/01 09:30:46;;;;;;;0.20;0.20;;;;;;;19.61;45.30;102063.94;5110609;28;20043;-34
2022/01/01 09:33:12;;;;;;;0.20;0.20;;;;;;;19.59;45.45;102061.38;5108068;28;20044;-34
2022/01/01 09:35:38;;;;;;;0.20;0.20;;;;;;;19.61;45.45;102069.47;5112664;28;20039;-35
2022/01/01 09:38:04;;;;;;;0.20;0.20;;;;;;;19.60;45.47;102067.72;5091072;28;20792;-35
2022/01/01 09:40:30;;;;;;;0.20;0.20;;;;;;;19.60;45.29;102076.03;5112786;28;20050;-35
2022/01/01 09:42:58;;;;;;;0.20;0.20;;;;;;;19.60;45.30;102076.84;5091336;28;20062;-35
2022/01/01 09:45:23;;;;;;;0.10;0.10;;;;;;;19.60;45.42;102076.84;5093020;28;20039;-35
2022/01/01 09:47:49;;;;;;;0.20;0.20;;;;;;;19.61;45.61;102072.22;5112295;28;20411;-37
2022/01/01 09:50:15;;;;;;;0.20;0.20;;;;;;;19.61;45.43;102075.81;5109255;28;20120;-35
2022/01/01 09:52:41;;;;;;;0.20;0.20;;;;;;;19.61;45.46;102089.63;5112594;28;20039;-37
2022/01/01 09:55:07;;;;;;;0.20;0.20;;;;;;;19.61;45.51;102097.09;5108173;28;20040;-35
2022/01/01 09:57:32;;;;;;;0.20;0.20;;;;;;;19.61;45.38;102099.84;5091995;28;20063;-37
2022/01/01 09:59:58;;;;;;;0.20;0.20;;;;;;;19.62;45.35;102093.22;5110176;28;20036;-35
2022/01/01 10:02:24;;;;;;;0.20;0.20;;;;;;;19.61;45.19;102091.56;5109385;28;20048;-34
2022/01/01 10:04:52;;;;;;;0.20;0.20;;;;;;;19.62;45.38;102084.94;5109240;28;20047;-35
2022/01/01 10:07:26;;;;;;;0.20;0.20;;;;;;;19.61;45.29;102078.59;5089081;28;20047;-37
2022/01/01 10:09:51;;;;;;;0.20;0.20;;;;;;;19.62;45.44;102082.19;5074101;28;20251;-36
2022/01/01 10:12:17;;;;;;;0.20;0.20;;;;;;;19.61;45.28;102075.00;5113302;28;20044;-35
2022/01/01 10:14:46;;;;;;;0.20;0.20;;;;;;;19.61;45.17;102075.81;5107624;28;20044;-35
2022/01/01 10:17:21;;;;;;;0.20;0.20;;;;;;;19.61;45.32;102078.59;5094999;28;20118;-34
2022/01/01 10:19:49;;;;;;;0.20;0.20;;;;;;;19.62;45.16;102080.25;5116349;28;20058;-35
2022/01/01 10:22:18;;;;;;;0.20;0.20;;;;;;;19.62;45.25;102077.47;5096498;28;20039;-36
2022/01/01 10:27:48;;;;;;;0.20;0.20;;;;;;;19.62;45.37;102069.19;5103198;28;20057;-36
2022/01/01 10:30:39;;;;;;;0.20;0.20;;;;;;;19.62;45.16;102071.94;5100066;28;20054;-35
2022/01/01 10:33:09;;;;;;;0.20;0.20;;;;;;;19.61;45.44;102075.81;5095719;28;20481;-35
2022/01/01 10:35:38;;;;;;;0.20;0.20;;;;;;;19.62;45.33;102060.06;5114214;28;20390;-34
2022/01/01 10:38:09;;;;;;;0.20;0.20;;;;;;;19.61;45.21;102064.75;5098321;28;20051;-37
2022/01/01 10:40:34;;;;;;;0.20;0.20;;;;;;;19.62;45.13;102060.91;5094381;28;20523;-37
2022/01/01 10:43:00;;;;;;;0.20;0.20;;;;;;;19.62;45.16;102060.06;5117755;28;20040;-39
2022/01/01 10:45:32;;;;;;;0.20;0.20;;;;;;;19.62;45.37;102052.63;5110952;28;20451;-36
2022/01/01 10:48:26;;;;;;;0.20;0.20;;;;;;;19.63;45.18;102058.97;5096312;28;20039;-35
2022/01/01 10:50:53;;;;;;;0.20;0.20;;;;;;;19.61;45.28;102042.66;5085676;28;20043;-35
2022/01/01 10:53:22;;;;;;;0.10;0.10;;;;;;;19.62;45.13;102037.97;5110726;28;20083;-35
2022/01/01 10:55:50;;;;;;;;;;;;;;;19.63;45.02;102020.28;5109502;28;20046;-37
2022/01/01 10:58:17;;;;;;;0.20;0.20;;;;;;;19.62;45.31;102022.22;5103943;28;19927;-34
2022/01/01 11:00:43;;;;;;;0.20;0.20;;;;;;;19.62;45.44;102030.50;5118803;28;20040;-35
2022/01/01 11:03:09;;;;;;;0.20;0.20;;;;;;;19.62;45.27;102024.16;5110914;28;20048;-35
2022/01/01 11:05:37;;;;;;;0.20;0.20;;;;;;;19.62;45.28;102018.63;5112023;28;20043;-34
2022/01/01 11:08:05;;;;;;;0.10;0.10;;;;;;;19.63;45.45;102012.00;5097015;28;20039;-36
2022/01/01 11:10:32;;;;;;;0.20;0.20;;;;;;;19.62;45.05;102005.63;5092477;28;20336;-36
2022/01/01 11:12:59;;;;;;;0.20;0.20;;;;;;;19.62;45.30;102007.56;5108965;28;20047;-35
2022/01/01 11:15:25;;;;;;;0.20;0.20;;;;;;;19.62;45.36;102008.41;5115336;28;20039;-36
2022/01/01 11:17:51;;;;;;;0.20;0.20;;;;;;;19.62;45.22;102000.09;5094179;28;20164;-35
2022/01/01 11:20:17;;;;;;;0.20;0.20;;;;;;;19.62;45.02;101991.00;5117931;28;20051;-36
2022/01/01 11:22:47;;;;;;;0.17;0.17;;;;;;;19.63;45.16;101992.66;5108800;28;20130;-36
2022/01/01 11:25:12;;;;;;;0.20;0.20;;;;;;;19.62;45.41;101989.06;5092244;28;20050;-36